Marthasville, MO (63357)

7:06 AM CDT on May 24, 2017 (GMT -0500)
Washington | | Change Station
Active Advisory: Flood Warning

Elev 489 ft 38.59 °N, 90.99 °W | Updated 31 minutes ago

Mostly Cloudy
Mostly Cloudy
50 °F
Feels Like 50 °F
N
5
Wind Variable Wind from NW

Today
High -- | Low -- °F
--% Chance of Precip.
Yesterday
High -- | Low -- °F
Precip. -- in
Pressure 29.62 in
Visibility 10.0 miles
Clouds Overcast 11000 ft
Dew Point 50 °F
Humidity 100%
Rainfall 0.00 in
Snow Depth Not available.
5:45 AM 8:17 PM
Waning Crescent, 3% visible
METAR KFYG 241135Z AUTO 32004KT 10SM OVC110 10/10 A2962 RMK AO2
Pressure 29.62 in
Visibility 10.0 miles
Clouds Overcast 11000 ft
Dew Point 50 °F
Humidity 100%
Rainfall 0.00 in
Snow Depth Not available.
5:45 AM 8:17 PM
Waning Crescent, 3% visible
METAR KFYG 241135Z AUTO 32004KT 10SM OVC110 10/10 A2962 RMK AO2

Get Your Daily Forecast Email!

Thanks for signing up!

Be on the lookout for a verification email in your inbox.

You'll start receiving severe weather alerts in your inbox..

×

10-Day Weather Forecast

Almanac

Astronomy

May. 24, 2017 Rise Set
Actual Time
Civil Twilight
Nautical Twilight
Astronomical Twilight
Moon
Length of Visible Light
Length of Day
Tomorrow will be .
, % of the Moon is Illuminated

Today's Extremes

State Highs State Lows

Community

WunderPhotos

Category 6

Welcome to Category 6. This is the collective home for Weather Underground's featured writeups by Dr. Jeff Masters (right), Bob Henson (left), Chris Burt, and other regular contributors.

Nearby

Air Quality

  Air Quality AQ Index Pollutant
Not available.

Snow Depth

Station Depth Elevation

Earthquake Activity

City Distance Mag. Time & Date
Minimum magnitude displayed is 2.5.

Coastal Water Temperatures

Place Temperature

Stations

Nearby Weather Stations

Station Location Temp. Windchill Dew Point Humidity Wind Precip. Elev Updated Type
                   

Watches & Warnings

Flood Warning
Issued: 9:56 PM CDT May. 23, 2017 – National Weather Service

The Flood Warning continues for
the Missouri River at Washington
* until Friday evening.
* At 8:45 PM Tuesday the stage was 20.3 feet.
* Flood stage is 20.0 feet.
* Minor flooding is forecast.
* The river is forecast to crest near 20.4 feet by tomorrow early
afternoon, then fall below flood stage Thursday morning.
* Impact: at 17.5 feet... lower River Front parking lot is closed

                   fld latest 7 a.M. Forecast
location stg obs stg 05/24 05/25 05/26 05/27 05/28

Missouri River
Washington 20.0 20.33 20.4 20.0 18.6 17.2 15.7




Lat... Lon 3865 9078 3859 9072 3851 9089 3861 9123
      3866 9119